sensor_id;sensor_type;location;lat;lon;timestamp;P1;durP1;ratioP1;P2;durP2;ratioP2
63008;SDS011;49099;28.428;-16.488;2023-05-01T00:02:12;20.58;;;4.30;;
63008;SDS011;49099;28.428;-16.488;2023-05-01T00:04:40;14.77;;;3.30;;
63008;SDS011;49099;28.428;-16.488;2023-05-01T00:07:07;16.77;;;3.50;;
63008;SDS011;49099;28.428;-16.488;2023-05-01T00:09:34;11.63;;;2.83;;
63008;SDS011;49099;28.428;-16.488;2023-05-01T00:12:01;21.33;;;3.30;;
63008;SDS011;49099;28.428;-16.488;2023-05-01T00:14:29;14.63;;;3.20;;
63008;SDS011;49099;28.428;-16.488;2023-05-01T00:16:56;24.52;;;3.40;;
63008;SDS011;49099;28.428;-16.488;2023-05-01T00:19:24;25.50;;;4.13;;
63008;SDS011;49099;28.428;-16.488;2023-05-01T00:21:51;19.25;;;3.25;;
63008;SDS011;49099;28.428;-16.488;2023-05-01T00:24:18;16.00;;;3.38;;
63008;SDS011;49099;28.428;-16.488;2023-05-01T00:26:46;19.20;;;3.38;;
63008;SDS011;49099;28.428;-16.488;2023-05-01T00:29:13;15.90;;;3.22;;
63008;SDS011;49099;28.428;-16.488;2023-05-01T00:31:40;14.43;;;3.42;;
63008;SDS011;49099;28.428;-16.488;2023-05-01T00:34:09;16.15;;;3.17;;
63008;SDS011;49099;28.428;-16.488;2023-05-01T00:36:37;17.10;;;3.70;;
63008;SDS011;49099;28.428;-16.488;2023-05-01T00:39:05;17.80;;;2.90;;
63008;SDS011;49099;28.428;-16.488;2023-05-01T00:41:35;15.18;;;3.05;;
63008;SDS011;49099;28.428;-16.488;2023-05-01T00:44:03;19.15;;;3.70;;
63008;SDS011;49099;28.428;-16.488;2023-05-01T00:46:31;16.77;;;3.17;;
63008;SDS011;49099;28.428;-16.488;2023-05-01T00:49:00;18.38;;;3.55;;
63008;SDS011;49099;28.428;-16.488;2023-05-01T00:51:27;24.70;;;4.50;;
63008;SDS011;49099;28.428;-16.488;2023-05-01T00:53:55;33.55;;;4.65;;
63008;SDS011;49099;28.428;-16.488;2023-05-01T00:56:25;41.17;;;5.72;;
63008;SDS011;49099;28.428;-16.488;2023-05-01T00:58:52;36.55;;;5.88;;
63008;SDS011;49099;28.428;-16.488;2023-05-01T01:01:20;30.10;;;5.32;;
63008;SDS011;49099;28.428;-16.488;2023-05-01T01:03:47;33.55;;;5.53;;
63008;SDS011;49099;28.428;-16.488;2023-05-01T01:14:47;37.97;;;6.22;;
63008;SDS011;49099;28.428;-16.488;2023-05-01T01:23:19;27.75;;;5.70;;
63008;SDS011;49099;28.428;-16.488;2023-05-01T01:26:12;25.50;;;6.05;;
63008;SDS011;49099;28.428;-16.488;2023-05-01T01:35:03;35.13;;;7.63;;
63008;SDS011;49099;28.428;-16.488;2023-05-01T01:37:44;30.40;;;7.13;;
63008;SDS011;49099;28.428;-16.488;2023-05-01T01:40:18;26.67;;;6.70;;
63008;SDS011;49099;28.428;-16.488;2023-05-01T01:42:57;23.55;;;7.13;;
63008;SDS011;49099;28.428;-16.488;2023-05-01T01:45:38;28.85;;;6.75;;
63008;SDS011;49099;28.428;-16.488;2023-05-01T01:48:08;27.33;;;7.20;;
63008;SDS011;49099;28.428;-16.488;2023-05-01T01:50:39;30.55;;;8.75;;
63008;SDS011;49099;28.428;-16.488;2023-05-01T01:53:08;22.65;;;6.88;;
63008;SDS011;49099;28.428;-16.488;2023-05-01T01:55:38;19.42;;;6.70;;
63008;SDS011;49099;28.428;-16.488;2023-05-01T01:58:09;25.30;;;7.22;;
63008;SDS011;49099;28.428;-16.488;2023-05-01T02:00:39;18.45;;;7.40;;
63008;SDS011;49099;28.428;-16.488;2023-05-01T02:03:10;19.17;;;6.45;;
63008;SDS011;49099;28.428;-16.488;2023-05-01T02:05:39;17.42;;;5.93;;
63008;SDS011;49099;28.428;-16.488;2023-05-01T02:08:08;18.48;;;5.43;;
63008;SDS011;49099;28.428;-16.488;2023-05-01T02:10:39;21.55;;;5.80;;
63008;SDS011;49099;28.428;-16.488;2023-05-01T02:13:08;19.60;;;5.38;;
63008;SDS011;49099;28.428;-16.488;2023-05-01T02:15:37;21.75;;;5.63;;
63008;SDS011;49099;28.428;-16.488;2023-05-01T02:18:07;17.27;;;5.00;;
63008;SDS011;49099;28.428;-16.488;2023-05-01T02:20:35;18.77;;;4.95;;
63008;SDS011;49099;28.428;-16.488;2023-05-01T02:23:03;17.30;;;4.78;;
63008;SDS011;49099;28.428;-16.488;2023-05-01T02:25:33;15.55;;;4.90;;
63008;SDS011;49099;28.428;-16.488;2023-05-01T02:28:08;20.08;;;4.90;;
63008;SDS011;49099;28.428;-16.488;2023-05-01T02:30:39;15.13;;;3.97;;
63008;SDS011;49099;28.428;-16.488;2023-05-01T02:33:06;14.77;;;3.30;;
63008;SDS011;49099;28.428;-16.488;2023-05-01T02:35:41;15.55;;;3.63;;
63008;SDS011;49099;28.428;-16.488;2023-05-01T02:38:13;17.85;;;3.92;;
63008;SDS011;49099;28.428;-16.488;2023-05-01T02:40:44;16.90;;;3.58;;
63008;SDS011;49099;28.428;-16.488;2023-05-01T02:43:17;16.67;;;3.53;;
63008;SDS011;49099;28.428;-16.488;2023-05-01T02:45:48;16.08;;;3.75;;
63008;SDS011;49099;28.428;-16.488;2023-05-01T02:48:21;18.75;;;3.63;;
63008;SDS011;49099;28.428;-16.488;2023-05-01T02:50:51;23.27;;;3.70;;
63008;SDS011;49099;28.428;-16.488;2023-05-01T02:53:20;12.00;;;3.08;;
63008;SDS011;49099;28.428;-16.488;2023-05-01T02:55:48;17.30;;;3.30;;
63008;SDS011;49099;28.428;-16.488;2023-05-01T02:58:16;16.25;;;3.55;;
63008;SDS011;49099;28.428;-16.488;2023-05-01T03:00:44;14.93;;;2.47;;
63008;SDS011;49099;28.428;-16.488;2023-05-01T03:03:13;16.27;;;2.80;;
63008;SDS011;49099;28.428;-16.488;2023-05-01T03:05:42;15.05;;;2.80;;
63008;SDS011;49099;28.428;-16.488;2023-05-01T03:08:09;15.57;;;2.97;;
63008;SDS011;49099;28.428;-16.488;2023-05-01T03:10:39;13.02;;;2.97;;
63008;SDS011;49099;28.428;-16.488;2023-05-01T03:13:10;13.32;;;2.60;;
63008;SDS011;49099;28.428;-16.488;2023-05-01T03:15:37;11.52;;;2.95;;
63008;SDS011;49099;28.428;-16.488;2023-05-01T03:18:05;11.63;;;2.50;;
63008;SDS011;49099;28.428;-16.488;2023-05-01T03:20:32;12.82;;;2.53;;
63008;SDS011;49099;28.428;-16.488;2023-05-01T03:22:59;12.93;;;3.33;;
63008;SDS011;49099;28.428;-16.488;2023-05-01T03:25:27;9.35;;;2.42;;
63008;SDS011;49099;28.428;-16.488;2023-05-01T03:27:54;10.77;;;2.30;;
63008;SDS011;49099;28.428;-16.488;2023-05-01T03:30:21;12.85;;;2.55;;
63008;SDS011;49099;28.428;-16.488;2023-05-01T03:32:49;11.98;;;2.30;;
63008;SDS011;49099;28.428;-16.488;2023-05-01T03:35:17;6.07;;;1.50;;
63008;SDS011;49099;28.428;-16.488;2023-05-01T03:37:44;6.07;;;1.35;;
63008;SDS011;49099;28.428;-16.488;2023-05-01T03:40:11;4.93;;;1.10;;
63008;SDS011;49099;28.428;-16.488;2023-05-01T03:42:39;4.93;;;1.30;;
63008;SDS011;49099;28.428;-16.488;2023-05-01T03:45:06;7.38;;;1.27;;
63008;SDS011;49099;28.428;-16.488;2023-05-01T03:47:34;23.27;;;3.40;;
63008;SDS011;49099;28.428;-16.488;2023-05-01T03:50:02;26.00;;;3.25;;
63008;SDS011;49099;28.428;-16.488;2023-05-01T03:52:29;14.18;;;2.67;;
63008;SDS011;49099;28.428;-16.488;2023-05-01T03:54:56;10.70;;;2.22;;
63008;SDS011;49099;28.428;-16.488;2023-05-01T03:57:23;10.07;;;1.80;;
63008;SDS011;49099;28.428;-16.488;2023-05-01T03:59:50;8.40;;;2.00;;
63008;SDS011;49099;28.428;-16.488;2023-05-01T04:02:18;6.43;;;1.73;;
63008;SDS011;49099;28.428;-16.488;2023-05-01T04:04:45;9.20;;;2.13;;
63008;SDS011;49099;28.428;-16.488;2023-05-01T04:07:12;4.75;;;1.23;;
63008;SDS011;49099;28.428;-16.488;2023-05-01T04:09:39;8.38;;;1.67;;
63008;SDS011;49099;28.428;-16.488;2023-05-01T04:12:07;9.93;;;1.73;;
63008;SDS011;49099;28.428;-16.488;2023-05-01T04:14:34;5.95;;;1.60;;
63008;SDS011;49099;28.428;-16.488;2023-05-01T04:17:01;5.82;;;1.30;;
63008;SDS011;49099;28.428;-16.488;2023-05-01T04:19:28;7.03;;;1.58;;
63008;SDS011;49099;28.428;-16.488;2023-05-01T04:21:55;9.45;;;1.75;;
63008;SDS011;49099;28.428;-16.488;2023-05-01T04:24:27;6.82;;;1.50;;
63008;SDS011;49099;28.428;-16.488;2023-05-01T04:26:54;6.78;;;1.58;;
63008;SDS011;49099;28.428;-16.488;2023-05-01T04:29:21;8.15;;;1.80;;
63008;SDS011;49099;28.428;-16.488;2023-05-01T04:31:49;4.50;;;1.17;;
63008;SDS011;49099;28.428;-16.488;2023-05-01T04:34:16;4.28;;;1.15;;
63008;SDS011;49099;28.428;-16.488;2023-05-01T04:36:43;4.55;;;1.38;;
63008;SDS011;49099;28.428;-16.488;2023-05-01T04:39:10;3.20;;;1.38;;
63008;SDS011;49099;28.428;-16.488;2023-05-01T04:41:37;3.78;;;1.10;;
63008;SDS011;49099;28.428;-16.488;2023-05-01T04:44:04;3.03;;;1.15;;
63008;SDS011;49099;28.428;-16.488;2023-05-01T04:46:32;3.85;;;0.98;;
63008;SDS011;49099;28.428;-16.488;2023-05-01T04:48:59;6.28;;;1.00;;
63008;SDS011;49099;28.428;-16.488;2023-05-01T04:51:26;2.72;;;0.90;;
63008;SDS011;49099;28.428;-16.488;2023-05-01T04:53:54;5.15;;;0.90;;
63008;SDS011;49099;28.428;-16.488;2023-05-01T04:56:21;3.15;;;0.80;;
63008;SDS011;49099;28.428;-16.488;2023-05-01T04:58:48;3.50;;;0.80;;
63008;SDS011;49099;28.428;-16.488;2023-05-01T05:01:16;2.17;;;0.70;;
63008;SDS011;49099;28.428;-16.488;2023-05-01T05:03:43;3.30;;;0.90;;
63008;SDS011;49099;28.428;-16.488;2023-05-01T05:06:14;2.45;;;0.80;;
63008;SDS011;49099;28.428;-16.488;2023-05-01T05:08:41;3.22;;;0.85;;
63008;SDS011;49099;28.428;-16.488;2023-05-01T05:11:08;2.60;;;1.00;;
63008;SDS011;49099;28.428;-16.488;2023-05-01T05:13:35;4.05;;;1.10;;
63008;SDS011;49099;28.428;-16.488;2023-05-01T05:16:02;4.78;;;1.02;;
63008;SDS011;49099;28.428;-16.488;2023-05-01T05:18:30;11.68;;;1.23;;
63008;SDS011;49099;28.428;-16.488;2023-05-01T05:20:57;3.85;;;0.90;;
63008;SDS011;49099;28.428;-16.488;2023-05-01T05:23:25;1.98;;;0.85;;
63008;SDS011;49099;28.428;-16.488;2023-05-01T05:25:52;2.13;;;0.80;;
63008;SDS011;49099;28.428;-16.488;2023-05-01T05:28:19;2.63;;;1.00;;
63008;SDS011;49099;28.428;-16.488;2023-05-01T05:30:47;3.10;;;0.90;;
63008;SDS011;49099;28.428;-16.488;2023-05-01T05:33:14;1.45;;;0.63;;
63008;SDS011;49099;28.428;-16.488;2023-05-01T05:35:41;1.90;;;0.75;;
63008;SDS011;49099;28.428;-16.488;2023-05-01T05:38:09;3.50;;;0.80;;
63008;SDS011;49099;28.428;-16.488;2023-05-01T05:40:36;1.60;;;0.70;;
63008;SDS011;49099;28.428;-16.488;2023-05-01T05:43:03;2.03;;;0.90;;
63008;SDS011;49099;28.428;-16.488;2023-05-01T05:45:33;2.15;;;0.85;;
63008;SDS011;49099;28.428;-16.488;2023-05-01T05:48:01;1.13;;;0.70;;
63008;SDS011;49099;28.428;-16.488;2023-05-01T05:50:29;1.00;;;0.60;;
63008;SDS011;49099;28.428;-16.488;2023-05-01T05:52:56;1.70;;;0.80;;
63008;SDS011;49099;28.428;-16.488;2023-05-01T05:55:23;1.50;;;0.70;;
63008;SDS011;49099;28.428;-16.488;2023-05-01T05:57:50;1.15;;;0.60;;
63008;SDS011;49099;28.428;-16.488;2023-05-01T06:00:17;1.48;;;0.65;;
63008;SDS011;49099;28.428;-16.488;2023-05-01T06:02:45;1.17;;;0.70;;
63008;SDS011;49099;28.428;-16.488;2023-05-01T06:05:12;0.93;;;0.68;;
63008;SDS011;49099;28.428;-16.488;2023-05-01T06:07:39;1.55;;;0.60;;
63008;SDS011;49099;28.428;-16.488;2023-05-01T06:10:06;1.38;;;0.60;;
63008;SDS011;49099;28.428;-16.488;2023-05-01T06:12:34;0.85;;;0.50;;
63008;SDS011;49099;28.428;-16.488;2023-05-01T06:15:08;1.05;;;0.50;;
63008;SDS011;49099;28.428;-16.488;2023-05-01T06:17:35;1.92;;;0.63;;
63008;SDS011;49099;28.428;-16.488;2023-05-01T06:20:03;1.55;;;0.70;;
63008;SDS011;49099;28.428;-16.488;2023-05-01T06:22:31;0.45;;;0.40;;
63008;SDS011;49099;28.428;-16.488;2023-05-01T06:24:58;2.67;;;0.65;;
63008;SDS011;49099;28.428;-16.488;2023-05-01T06:27:26;1.80;;;0.50;;
63008;SDS011;49099;28.428;-16.488;2023-05-01T06:29:54;0.80;;;0.50;;
63008;SDS011;49099;28.428;-16.488;2023-05-01T06:32:21;0.52;;;0.40;;
63008;SDS011;49099;28.428;-16.488;2023-05-01T06:34:48;0.93;;;0.60;;
63008;SDS011;49099;28.428;-16.488;2023-05-01T06:37:16;1.20;;;0.60;;
63008;SDS011;49099;28.428;-16.488;2023-05-01T06:39:43;2.00;;;0.50;;
63008;SDS011;49099;28.428;-16.488;2023-05-01T06:42:10;1.85;;;0.60;;
63008;SDS011;49099;28.428;-16.488;2023-05-01T06:44:41;2.17;;;0.70;;
63008;SDS011;49099;28.428;-16.488;2023-05-01T06:47:09;0.50;;;0.47;;
63008;SDS011;49099;28.428;-16.488;2023-05-01T06:49:36;0.82;;;0.55;;
63008;SDS011;49099;28.428;-16.488;2023-05-01T06:52:03;1.17;;;0.60;;
63008;SDS011;49099;28.428;-16.488;2023-05-01T06:54:30;1.58;;;0.70;;
63008;SDS011;49099;28.428;-16.488;2023-05-01T06:56:57;0.98;;;0.60;;
63008;SDS011;49099;28.428;-16.488;2023-05-01T06:59:25;2.42;;;0.80;;
63008;SDS011;49099;28.428;-16.488;2023-05-01T07:01:52;2.95;;;0.82;;
63008;SDS011;49099;28.428;-16.488;2023-05-01T07:04:19;1.85;;;0.75;;
63008;SDS011;49099;28.428;-16.488;2023-05-01T07:06:46;2.10;;;0.80;;
63008;SDS011;49099;28.428;-16.488;2023-05-01T07:09:14;3.30;;;0.80;;
63008;SDS011;49099;28.428;-16.488;2023-05-01T07:11:41;1.92;;;0.50;;
63008;SDS011;49099;28.428;-16.488;2023-05-01T07:14:08;0.50;;;0.50;;
63008;SDS011;49099;28.428;-16.488;2023-05-01T07:16:35;0.63;;;0.50;;
63008;SDS011;49099;28.428;-16.488;2023-05-01T07:19:02;2.90;;;0.60;;
63008;SDS011;49099;28.428;-16.488;2023-05-01T07:21:30;1.13;;;0.40;;
63008;SDS011;49099;28.428;-16.488;2023-05-01T07:23:58;0.45;;;0.40;;
63008;SDS011;49099;28.428;-16.488;2023-05-01T07:26:25;0.80;;;0.43;;
63008;SDS011;49099;28.428;-16.488;2023-05-01T07:28:52;0.80;;;0.60;;
63008;SDS011;49099;28.428;-16.488;2023-05-01T07:31:19;0.50;;;0.40;;
63008;SDS011;49099;28.428;-16.488;2023-05-01T07:33:48;1.42;;;0.60;;
63008;SDS011;49099;28.428;-16.488;2023-05-01T07:36:16;1.73;;;0.82;;
63008;SDS011;49099;28.428;-16.488;2023-05-01T07:38:46;1.35;;;0.63;;
63008;SDS011;49099;28.428;-16.488;2023-05-01T07:41:13;4.40;;;0.73;;
63008;SDS011;49099;28.428;-16.488;2023-05-01T07:43:40;3.78;;;0.80;;
63008;SDS011;49099;28.428;-16.488;2023-05-01T07:46:07;3.92;;;0.93;;
63008;SDS011;49099;28.428;-16.488;2023-05-01T07:48:35;4.32;;;1.25;;
63008;SDS011;49099;28.428;-16.488;2023-05-01T07:51:04;7.32;;;1.50;;
63008;SDS011;49099;28.428;-16.488;2023-05-01T07:53:31;4.78;;;1.35;;
63008;SDS011;49099;28.428;-16.488;2023-05-01T07:56:05;7.45;;;1.80;;
63008;SDS011;49099;28.428;-16.488;2023-05-01T07:58:34;7.30;;;1.70;;
63008;SDS011;49099;28.428;-16.488;2023-05-01T08:01:02;5.43;;;1.70;;
63008;SDS011;49099;28.428;-16.488;2023-05-01T08:03:31;6.22;;;1.63;;
63008;SDS011;49099;28.428;-16.488;2023-05-01T08:05:59;5.43;;;1.52;;
63008;SDS011;49099;28.428;-16.488;2023-05-01T08:08:26;5.57;;;1.40;;
63008;SDS011;49099;28.428;-16.488;2023-05-01T08:10:53;7.90;;;2.10;;
63008;SDS011;49099;28.428;-16.488;2023-05-01T08:13:20;5.68;;;1.40;;
63008;SDS011;49099;28.428;-16.488;2023-05-01T08:15:48;4.30;;;1.58;;
63008;SDS011;49099;28.428;-16.488;2023-05-01T08:18:15;3.33;;;1.05;;
63008;SDS011;49099;28.428;-16.488;2023-05-01T08:20:46;4.72;;;0.98;;
63008;SDS011;49099;28.428;-16.488;2023-05-01T08:23:15;4.70;;;0.90;;
63008;SDS011;49099;28.428;-16.488;2023-05-01T08:25:43;4.20;;;1.15;;
63008;SDS011;49099;28.428;-16.488;2023-05-01T08:28:15;2.97;;;0.90;;
63008;SDS011;49099;28.428;-16.488;2023-05-01T08:30:43;4.45;;;1.00;;
63008;SDS011;49099;28.428;-16.488;2023-05-01T08:33:11;5.63;;;1.20;;
63008;SDS011;49099;28.428;-16.488;2023-05-01T08:35:38;3.78;;;1.05;;
63008;SDS011;49099;28.428;-16.488;2023-05-01T08:38:05;2.63;;;0.80;;
63008;SDS011;49099;28.428;-16.488;2023-05-01T08:40:37;3.45;;;1.38;;
63008;SDS011;49099;28.428;-16.488;2023-05-01T08:43:06;2.80;;;0.80;;
63008;SDS011;49099;28.428;-16.488;2023-05-01T08:45:34;1.75;;;0.75;;
63008;SDS011;49099;28.428;-16.488;2023-05-01T08:48:06;4.70;;;0.75;;
63008;SDS011;49099;28.428;-16.488;2023-05-01T08:50:36;5.70;;;1.38;;
63008;SDS011;49099;28.428;-16.488;2023-05-01T08:53:05;5.18;;;1.40;;
63008;SDS011;49099;28.428;-16.488;2023-05-01T08:55:34;4.82;;;1.65;;
63008;SDS011;49099;28.428;-16.488;2023-05-01T08:58:03;5.78;;;1.60;;
63008;SDS011;49099;28.428;-16.488;2023-05-01T09:00:33;10.35;;;1.80;;
63008;SDS011;49099;28.428;-16.488;2023-05-01T09:03:02;7.97;;;2.28;;
63008;SDS011;49099;28.428;-16.488;2023-05-01T09:05:31;11.10;;;2.33;;
63008;SDS011;49099;28.428;-16.488;2023-05-01T09:07:59;13.48;;;2.67;;
63008;SDS011;49099;28.428;-16.488;2023-05-01T09:10:26;16.08;;;3.83;;
63008;SDS011;49099;28.428;-16.488;2023-05-01T09:13:01;11.98;;;2.28;;
63008;SDS011;49099;28.428;-16.488;2023-05-01T09:15:32;12.38;;;2.30;;
63008;SDS011;49099;28.428;-16.488;2023-05-01T09:17:59;9.70;;;1.63;;
63008;SDS011;49099;28.428;-16.488;2023-05-01T09:20:29;9.57;;;1.83;;
63008;SDS011;49099;28.428;-16.488;2023-05-01T09:22:57;6.03;;;1.70;;
63008;SDS011;49099;28.428;-16.488;2023-05-01T09:25:24;8.93;;;2.10;;
63008;SDS011;49099;28.428;-16.488;2023-05-01T09:27:51;19.15;;;3.10;;
63008;SDS011;49099;28.428;-16.488;2023-05-01T09:30:29;11.38;;;2.33;;
63008;SDS011;49099;28.428;-16.488;2023-05-01T09:33:04;10.07;;;2.20;;
63008;SDS011;49099;28.428;-16.488;2023-05-01T09:35:52;13.77;;;2.58;;
63008;SDS011;49099;28.428;-16.488;2023-05-01T09:38:22;15.02;;;3.00;;
63008;SDS011;49099;28.428;-16.488;2023-05-01T09:40:51;11.80;;;2.70;;
63008;SDS011;49099;28.428;-16.488;2023-05-01T09:43:23;14.25;;;3.50;;
63008;SDS011;49099;28.428;-16.488;2023-05-01T09:45:59;15.68;;;3.45;;
63008;SDS011;49099;28.428;-16.488;2023-05-01T09:48:27;14.93;;;3.47;;
63008;SDS011;49099;28.428;-16.488;2023-05-01T09:51:00;13.52;;;3.15;;
63008;SDS011;49099;28.428;-16.488;2023-05-01T09:53:37;19.10;;;3.40;;
63008;SDS011;49099;28.428;-16.488;2023-05-01T09:56:05;17.02;;;3.67;;
63008;SDS011;49099;28.428;-16.488;2023-05-01T09:58:32;20.88;;;3.92;;
63008;SDS011;49099;28.428;-16.488;2023-05-01T10:00:59;29.90;;;4.93;;
63008;SDS011;49099;28.428;-16.488;2023-05-01T10:03:27;35.35;;;5.47;;
63008;SDS011;49099;28.428;-16.488;2023-05-01T10:05:54;26.85;;;4.47;;
63008;SDS011;49099;28.428;-16.488;2023-05-01T10:08:23;26.85;;;4.45;;
63008;SDS011;49099;28.428;-16.488;2023-05-01T10:11:01;23.83;;;4.72;;
63008;SDS011;49099;28.428;-16.488;2023-05-01T10:13:30;30.98;;;5.35;;
63008;SDS011;49099;28.428;-16.488;2023-05-01T10:15:57;31.50;;;4.90;;
63008;SDS011;49099;28.428;-16.488;2023-05-01T10:18:26;24.33;;;4.97;;
63008;SDS011;49099;28.428;-16.488;2023-05-01T10:20:56;30.70;;;5.50;;
63008;SDS011;49099;28.428;-16.488;2023-05-01T10:23:23;31.63;;;6.05;;
63008;SDS011;49099;28.428;-16.488;2023-05-01T10:25:52;31.05;;;5.15;;
63008;SDS011;49099;28.428;-16.488;2023-05-01T10:28:22;29.48;;;5.05;;
63008;SDS011;49099;28.428;-16.488;2023-05-01T10:30:50;30.15;;;5.53;;
63008;SDS011;49099;28.428;-16.488;2023-05-01T10:33:19;26.33;;;4.30;;
63008;SDS011;49099;28.428;-16.488;2023-05-01T10:35:48;31.52;;;5.47;;
63008;SDS011;49099;28.428;-16.488;2023-05-01T10:38:24;30.48;;;5.75;;
63008;SDS011;49099;28.428;-16.488;2023-05-01T10:40:56;47.90;;;8.00;;
63008;SDS011;49099;28.428;-16.488;2023-05-01T10:43:24;40.25;;;6.53;;
63008;SDS011;49099;28.428;-16.488;2023-05-01T10:51:06;30.58;;;4.55;;
63008;SDS011;49099;28.428;-16.488;2023-05-01T10:53:38;28.05;;;4.95;;
63008;SDS011;49099;28.428;-16.488;2023-05-01T10:58:56;27.08;;;4.78;;
63008;SDS011;49099;28.428;-16.488;2023-05-01T11:01:37;33.83;;;4.85;;
63008;SDS011;49099;28.428;-16.488;2023-05-01T11:04:06;36.33;;;5.57;;
63008;SDS011;49099;28.428;-16.488;2023-05-01T11:09:38;32.40;;;5.75;;
63008;SDS011;49099;28.428;-16.488;2023-05-01T11:12:10;29.85;;;5.30;;
63008;SDS011;49099;28.428;-16.488;2023-05-01T11:22:38;25.52;;;4.50;;
63008;SDS011;49099;28.428;-16.488;2023-05-01T11:25:21;29.88;;;4.75;;
63008;SDS011;49099;28.428;-16.488;2023-05-01T11:27:59;32.85;;;4.93;;
63008;SDS011;49099;28.428;-16.488;2023-05-01T11:30:38;29.38;;;4.43;;
63008;SDS011;49099;28.428;-16.488;2023-05-01T11:33:05;32.25;;;5.35;;
63008;SDS011;49099;28.428;-16.488;2023-05-01T11:35:36;37.08;;;4.90;;
63008;SDS011;49099;28.428;-16.488;2023-05-01T11:38:04;31.85;;;5.05;;
63008;SDS011;49099;28.428;-16.488;2023-05-01T11:40:32;30.75;;;5.15;;
63008;SDS011;49099;28.428;-16.488;2023-05-01T11:43:06;25.83;;;4.68;;
63008;SDS011;49099;28.428;-16.488;2023-05-01T11:45:35;33.72;;;5.03;;
63008;SDS011;49099;28.428;-16.488;2023-05-01T11:48:03;30.80;;;4.90;;
63008;SDS011;49099;28.428;-16.488;2023-05-01T11:50:39;33.00;;;5.05;;
63008;SDS011;49099;28.428;-16.488;2023-05-01T11:53:10;26.83;;;4.95;;
63008;SDS011;49099;28.428;-16.488;2023-05-01T11:55:41;24.52;;;4.93;;
63008;SDS011;49099;28.428;-16.488;2023-05-01T11:58:09;26.80;;;4.18;;
63008;SDS011;49099;28.428;-16.488;2023-05-01T12:00:37;32.70;;;4.93;;
63008;SDS011;49099;28.428;-16.488;2023-05-01T12:05:42;22.23;;;4.57;;
63008;SDS011;49099;28.428;-16.488;2023-05-01T12:08:11;28.13;;;4.20;;
63008;SDS011;49099;28.428;-16.488;2023-05-01T12:10:41;27.55;;;4.85;;
63008;SDS011;49099;28.428;-16.488;2023-05-01T12:13:10;27.27;;;4.80;;
63008;SDS011;49099;28.428;-16.488;2023-05-01T12:15:40;28.33;;;5.00;;
63008;SDS011;49099;28.428;-16.488;2023-05-01T12:18:10;28.02;;;4.60;;
63008;SDS011;49099;28.428;-16.488;2023-05-01T12:20:42;39.85;;;4.75;;
63008;SDS011;49099;28.428;-16.488;2023-05-01T12:23:11;24.10;;;4.63;;
63008;SDS011;49099;28.428;-16.488;2023-05-01T12:25:42;29.90;;;5.50;;
63008;SDS011;49099;28.428;-16.488;2023-05-01T12:28:12;30.27;;;4.88;;
63008;SDS011;49099;28.428;-16.488;2023-05-01T12:30:40;29.80;;;4.97;;
63008;SDS011;49099;28.428;-16.488;2023-05-01T12:33:10;27.80;;;4.55;;
63008;SDS011;49099;28.428;-16.488;2023-05-01T12:35:38;20.27;;;3.90;;
63008;SDS011;49099;28.428;-16.488;2023-05-01T12:38:10;27.02;;;4.50;;
63008;SDS011;49099;28.428;-16.488;2023-05-01T12:40:53;26.55;;;4.00;;
63008;SDS011;49099;28.428;-16.488;2023-05-01T12:43:32;23.55;;;4.05;;
63008;SDS011;49099;28.428;-16.488;2023-05-01T12:46:00;26.75;;;3.97;;
63008;SDS011;49099;28.428;-16.488;2023-05-01T12:48:28;21.13;;;3.50;;
63008;SDS011;49099;28.428;-16.488;2023-05-01T12:50:56;26.83;;;4.50;;
63008;SDS011;49099;28.428;-16.488;2023-05-01T12:53:24;26.20;;;4.68;;
63008;SDS011;49099;28.428;-16.488;2023-05-01T12:55:54;25.95;;;4.18;;
63008;SDS011;49099;28.428;-16.488;2023-05-01T12:58:23;23.23;;;3.95;;
63008;SDS011;49099;28.428;-16.488;2023-05-01T13:01:03;22.73;;;3.90;;
63008;SDS011;49099;28.428;-16.488;2023-05-01T13:03:30;25.45;;;4.68;;
63008;SDS011;49099;28.428;-16.488;2023-05-01T13:06:05;33.08;;;5.05;;
63008;SDS011;49099;28.428;-16.488;2023-05-01T13:08:35;26.73;;;5.15;;
63008;SDS011;49099;28.428;-16.488;2023-05-01T13:11:12;34.65;;;5.80;;
63008;SDS011;49099;28.428;-16.488;2023-05-01T13:13:41;21.27;;;3.90;;
63008;SDS011;49099;28.428;-16.488;2023-05-01T13:16:10;28.98;;;4.15;;
63008;SDS011;49099;28.428;-16.488;2023-05-01T13:18:48;19.13;;;3.40;;
63008;SDS011;49099;28.428;-16.488;2023-05-01T13:21:21;19.20;;;3.15;;
63008;SDS011;49099;28.428;-16.488;2023-05-01T13:23:55;18.38;;;3.67;;
63008;SDS011;49099;28.428;-16.488;2023-05-01T13:26:27;24.20;;;3.83;;
63008;SDS011;49099;28.428;-16.488;2023-05-01T13:29:01;20.52;;;3.95;;
63008;SDS011;49099;28.428;-16.488;2023-05-01T13:31:31;23.10;;;4.40;;
63008;SDS011;49099;28.428;-16.488;2023-05-01T13:33:58;24.48;;;4.05;;
63008;SDS011;49099;28.428;-16.488;2023-05-01T13:36:29;20.73;;;4.13;;
63008;SDS011;49099;28.428;-16.488;2023-05-01T13:39:00;21.63;;;3.83;;
63008;SDS011;49099;28.428;-16.488;2023-05-01T13:41:27;26.88;;;4.20;;
63008;SDS011;49099;28.428;-16.488;2023-05-01T13:43:56;22.02;;;3.92;;
63008;SDS011;49099;28.428;-16.488;2023-05-01T13:46:24;24.50;;;3.50;;
63008;SDS011;49099;28.428;-16.488;2023-05-01T13:48:54;25.65;;;5.13;;
63008;SDS011;49099;28.428;-16.488;2023-05-01T13:51:24;22.25;;;4.35;;
63008;SDS011;49099;28.428;-16.488;2023-05-01T13:53:53;21.88;;;3.90;;
63008;SDS011;49099;28.428;-16.488;2023-05-01T13:56:21;25.48;;;4.03;;
63008;SDS011;49099;28.428;-16.488;2023-05-01T13:58:49;25.30;;;4.65;;
63008;SDS011;49099;28.428;-16.488;2023-05-01T14:01:19;20.65;;;3.90;;
63008;SDS011;49099;28.428;-16.488;2023-05-01T14:03:48;21.35;;;3.90;;
63008;SDS011;49099;28.428;-16.488;2023-05-01T14:06:16;15.45;;;3.55;;
63008;SDS011;49099;28.428;-16.488;2023-05-01T14:08:45;21.08;;;3.45;;
63008;SDS011;49099;28.428;-16.488;2023-05-01T14:11:13;23.73;;;3.85;;
63008;SDS011;49099;28.428;-16.488;2023-05-01T14:13:42;19.52;;;3.95;;
63008;SDS011;49099;28.428;-16.488;2023-05-01T14:16:24;18.70;;;3.70;;
63008;SDS011;49099;28.428;-16.488;2023-05-01T14:18:53;20.25;;;3.70;;
63008;SDS011;49099;28.428;-16.488;2023-05-01T14:21:23;25.33;;;4.00;;
63008;SDS011;49099;28.428;-16.488;2023-05-01T14:23:53;22.42;;;3.42;;
63008;SDS011;49099;28.428;-16.488;2023-05-01T14:26:22;28.05;;;3.80;;
63008;SDS011;49099;28.428;-16.488;2023-05-01T14:28:53;22.35;;;4.25;;
63008;SDS011;49099;28.428;-16.488;2023-05-01T14:31:25;30.45;;;4.28;;
63008;SDS011;49099;28.428;-16.488;2023-05-01T14:33:57;23.95;;;3.63;;
63008;SDS011;49099;28.428;-16.488;2023-05-01T14:36:26;22.30;;;4.28;;
63008;SDS011;49099;28.428;-16.488;2023-05-01T14:39:00;27.10;;;3.88;;
63008;SDS011;49099;28.428;-16.488;2023-05-01T14:41:29;20.95;;;3.80;;
63008;SDS011;49099;28.428;-16.488;2023-05-01T14:43:59;19.13;;;3.70;;
63008;SDS011;49099;28.428;-16.488;2023-05-01T14:46:30;24.10;;;3.88;;
63008;SDS011;49099;28.428;-16.488;2023-05-01T14:48:59;15.52;;;3.20;;
63008;SDS011;49099;28.428;-16.488;2023-05-01T14:51:27;26.58;;;4.10;;
63008;SDS011;49099;28.428;-16.488;2023-05-01T14:53:57;19.67;;;3.60;;
63008;SDS011;49099;28.428;-16.488;2023-05-01T14:56:25;22.38;;;3.88;;
63008;SDS011;49099;28.428;-16.488;2023-05-01T14:58:53;23.25;;;3.80;;
63008;SDS011;49099;28.428;-16.488;2023-05-01T15:01:20;18.92;;;3.92;;
63008;SDS011;49099;28.428;-16.488;2023-05-01T15:03:47;19.85;;;3.78;;
63008;SDS011;49099;28.428;-16.488;2023-05-01T15:06:15;21.10;;;3.72;;
63008;SDS011;49099;28.428;-16.488;2023-05-01T15:08:42;18.30;;;3.80;;